sensor_id;sensor_type;location;lat;lon;timestamp;P1;durP1;ratioP1;P2;durP2;ratioP2
54167;SDS011;68429;50.958;3.592;2023-08-31T00:02:10;9.43;;;4.10;;
54167;SDS011;68429;50.958;3.592;2023-08-31T00:04:36;11.27;;;4.78;;
54167;SDS011;68429;50.958;3.592;2023-08-31T00:07:02;13.63;;;4.70;;
54167;SDS011;68429;50.958;3.592;2023-08-31T00:09:28;7.78;;;4.30;;
54167;SDS011;68429;50.958;3.592;2023-08-31T00:11:54;8.63;;;4.25;;
54167;SDS011;68429;50.958;3.592;2023-08-31T00:14:21;13.40;;;5.55;;
54167;SDS011;68429;50.958;3.592;2023-08-31T00:16:47;11.00;;;4.88;;
54167;SDS011;68429;50.958;3.592;2023-08-31T00:19:13;13.52;;;4.80;;
54167;SDS011;68429;50.958;3.592;2023-08-31T00:21:39;9.40;;;4.65;;
54167;SDS011;68429;50.958;3.592;2023-08-31T00:24:05;6.60;;;4.40;;
54167;SDS011;68429;50.958;3.592;2023-08-31T00:26:32;12.13;;;5.25;;
54167;SDS011;68429;50.958;3.592;2023-08-31T00:28:59;10.63;;;5.13;;
54167;SDS011;68429;50.958;3.592;2023-08-31T00:31:24;10.95;;;5.25;;
54167;SDS011;68429;50.958;3.592;2023-08-31T00:33:52;8.15;;;4.47;;
54167;SDS011;68429;50.958;3.592;2023-08-31T00:36:18;11.70;;;4.95;;
54167;SDS011;68429;50.958;3.592;2023-08-31T00:38:44;11.82;;;4.97;;
54167;SDS011;68429;50.958;3.592;2023-08-31T00:41:09;11.32;;;4.70;;
54167;SDS011;68429;50.958;3.592;2023-08-31T00:43:35;10.25;;;5.07;;
54167;SDS011;68429;50.958;3.592;2023-08-31T00:46:01;13.10;;;5.18;;
54167;SDS011;68429;50.958;3.592;2023-08-31T00:48:27;9.75;;;5.25;;
54167;SDS011;68429;50.958;3.592;2023-08-31T00:50:53;14.15;;;5.43;;
54167;SDS011;68429;50.958;3.592;2023-08-31T00:53:19;10.25;;;5.40;;
54167;SDS011;68429;50.958;3.592;2023-08-31T00:55:46;9.93;;;5.13;;
54167;SDS011;68429;50.958;3.592;2023-08-31T00:58:12;9.98;;;5.15;;
54167;SDS011;68429;50.958;3.592;2023-08-31T01:04:03;8.02;;;4.72;;
54167;SDS011;68429;50.958;3.592;2023-08-31T01:09:19;12.68;;;5.20;;
54167;SDS011;68429;50.958;3.592;2023-08-31T01:14:32;8.68;;;5.25;;
54167;SDS011;68429;50.958;3.592;2023-08-31T01:17:11;9.00;;;4.95;;
54167;SDS011;68429;50.958;3.592;2023-08-31T01:19:48;8.43;;;4.72;;
54167;SDS011;68429;50.958;3.592;2023-08-31T01:25:01;10.32;;;5.40;;
54167;SDS011;68429;50.958;3.592;2023-08-31T01:27:29;9.35;;;5.05;;
54167;SDS011;68429;50.958;3.592;2023-08-31T01:29:56;12.75;;;5.68;;
54167;SDS011;68429;50.958;3.592;2023-08-31T01:32:23;9.90;;;5.47;;
54167;SDS011;68429;50.958;3.592;2023-08-31T01:34:49;10.45;;;5.57;;
54167;SDS011;68429;50.958;3.592;2023-08-31T01:37:59;9.43;;;5.47;;
54167;SDS011;68429;50.958;3.592;2023-08-31T01:40:17;9.60;;;5.32;;
54167;SDS011;68429;50.958;3.592;2023-08-31T01:42:48;11.13;;;4.80;;
54167;SDS011;68429;50.958;3.592;2023-08-31T01:45:17;10.43;;;4.75;;
54167;SDS011;68429;50.958;3.592;2023-08-31T01:47:48;10.43;;;5.90;;
54167;SDS011;68429;50.958;3.592;2023-08-31T01:50:14;10.35;;;5.57;;
54167;SDS011;68429;50.958;3.592;2023-08-31T01:52:40;8.88;;;5.00;;
54167;SDS011;68429;50.958;3.592;2023-08-31T01:55:06;8.77;;;5.50;;
54167;SDS011;68429;50.958;3.592;2023-08-31T01:57:32;11.77;;;5.15;;
54167;SDS011;68429;50.958;3.592;2023-08-31T01:59:58;10.55;;;5.70;;
54167;SDS011;68429;50.958;3.592;2023-08-31T02:02:24;9.18;;;5.03;;
54167;SDS011;68429;50.958;3.592;2023-08-31T02:04:50;7.97;;;5.07;;
54167;SDS011;68429;50.958;3.592;2023-08-31T02:07:16;11.55;;;5.32;;
54167;SDS011;68429;50.958;3.592;2023-08-31T02:09:42;19.70;;;5.43;;
54167;SDS011;68429;50.958;3.592;2023-08-31T02:12:08;6.65;;;4.43;;
54167;SDS011;68429;50.958;3.592;2023-08-31T02:14:36;11.63;;;4.68;;
54167;SDS011;68429;50.958;3.592;2023-08-31T02:17:03;9.10;;;4.65;;
54167;SDS011;68429;50.958;3.592;2023-08-31T02:19:29;11.32;;;5.90;;
54167;SDS011;68429;50.958;3.592;2023-08-31T02:21:55;8.40;;;4.97;;
54167;SDS011;68429;50.958;3.592;2023-08-31T02:24:20;8.85;;;4.88;;
54167;SDS011;68429;50.958;3.592;2023-08-31T02:26:47;9.15;;;5.22;;
54167;SDS011;68429;50.958;3.592;2023-08-31T02:29:13;7.97;;;5.13;;
54167;SDS011;68429;50.958;3.592;2023-08-31T02:31:39;7.03;;;5.22;;
54167;SDS011;68429;50.958;3.592;2023-08-31T02:34:04;10.38;;;5.63;;
54167;SDS011;68429;50.958;3.592;2023-08-31T02:36:30;10.07;;;5.57;;
54167;SDS011;68429;50.958;3.592;2023-08-31T02:38:56;6.80;;;4.53;;
54167;SDS011;68429;50.958;3.592;2023-08-31T02:41:22;12.63;;;5.47;;
54167;SDS011;68429;50.958;3.592;2023-08-31T02:43:50;9.73;;;5.05;;
54167;SDS011;68429;50.958;3.592;2023-08-31T02:46:16;12.27;;;4.97;;
54167;SDS011;68429;50.958;3.592;2023-08-31T02:48:42;9.07;;;4.88;;
54167;SDS011;68429;50.958;3.592;2023-08-31T02:51:08;9.32;;;5.07;;
54167;SDS011;68429;50.958;3.592;2023-08-31T02:53:34;8.60;;;5.03;;
54167;SDS011;68429;50.958;3.592;2023-08-31T02:55:59;10.98;;;5.45;;
54167;SDS011;68429;50.958;3.592;2023-08-31T02:58:25;12.43;;;5.65;;
54167;SDS011;68429;50.958;3.592;2023-08-31T03:00:51;13.93;;;5.35;;
54167;SDS011;68429;50.958;3.592;2023-08-31T03:03:18;12.77;;;5.20;;
54167;SDS011;68429;50.958;3.592;2023-08-31T03:05:44;14.80;;;5.68;;
54167;SDS011;68429;50.958;3.592;2023-08-31T03:08:10;13.20;;;4.88;;
54167;SDS011;68429;50.958;3.592;2023-08-31T03:10:36;16.55;;;6.47;;
54167;SDS011;68429;50.958;3.592;2023-08-31T03:13:02;10.15;;;4.78;;
54167;SDS011;68429;50.958;3.592;2023-08-31T03:15:28;10.93;;;4.43;;
54167;SDS011;68429;50.958;3.592;2023-08-31T03:17:53;10.85;;;4.57;;
54167;SDS011;68429;50.958;3.592;2023-08-31T03:20:19;16.33;;;5.13;;
54167;SDS011;68429;50.958;3.592;2023-08-31T03:22:45;12.05;;;5.03;;
54167;SDS011;68429;50.958;3.592;2023-08-31T03:25:11;14.73;;;5.63;;
54167;SDS011;68429;50.958;3.592;2023-08-31T03:27:36;14.10;;;5.40;;
54167;SDS011;68429;50.958;3.592;2023-08-31T03:30:02;18.27;;;6.00;;
54167;SDS011;68429;50.958;3.592;2023-08-31T03:32:29;15.18;;;5.15;;
54167;SDS011;68429;50.958;3.592;2023-08-31T03:34:54;19.83;;;5.55;;
54167;SDS011;68429;50.958;3.592;2023-08-31T03:37:20;13.57;;;5.47;;
54167;SDS011;68429;50.958;3.592;2023-08-31T03:39:50;11.50;;;5.13;;
54167;SDS011;68429;50.958;3.592;2023-08-31T03:42:15;16.80;;;5.50;;
54167;SDS011;68429;50.958;3.592;2023-08-31T03:44:41;18.38;;;5.47;;
54167;SDS011;68429;50.958;3.592;2023-08-31T03:47:07;16.50;;;5.78;;
54167;SDS011;68429;50.958;3.592;2023-08-31T03:49:32;18.75;;;6.07;;
54167;SDS011;68429;50.958;3.592;2023-08-31T03:51:59;12.23;;;5.72;;
54167;SDS011;68429;50.958;3.592;2023-08-31T03:54:25;14.13;;;6.25;;
54167;SDS011;68429;50.958;3.592;2023-08-31T03:56:51;11.05;;;5.60;;
54167;SDS011;68429;50.958;3.592;2023-08-31T03:59:16;20.15;;;5.88;;
54167;SDS011;68429;50.958;3.592;2023-08-31T04:01:43;12.65;;;5.60;;
54167;SDS011;68429;50.958;3.592;2023-08-31T04:04:09;11.73;;;6.03;;
54167;SDS011;68429;50.958;3.592;2023-08-31T04:06:34;12.80;;;6.15;;
54167;SDS011;68429;50.958;3.592;2023-08-31T04:09:00;17.50;;;6.22;;
54167;SDS011;68429;50.958;3.592;2023-08-31T04:11:26;12.77;;;5.90;;
54167;SDS011;68429;50.958;3.592;2023-08-31T04:13:51;19.83;;;6.32;;
54167;SDS011;68429;50.958;3.592;2023-08-31T04:16:18;13.48;;;7.30;;
54167;SDS011;68429;50.958;3.592;2023-08-31T04:18:44;14.00;;;6.10;;
54167;SDS011;68429;50.958;3.592;2023-08-31T04:21:12;16.00;;;6.53;;
54167;SDS011;68429;50.958;3.592;2023-08-31T04:23:38;18.75;;;6.35;;
54167;SDS011;68429;50.958;3.592;2023-08-31T04:26:11;16.52;;;6.50;;
54167;SDS011;68429;50.958;3.592;2023-08-31T04:28:37;18.88;;;6.65;;
54167;SDS011;68429;50.958;3.592;2023-08-31T04:31:07;13.38;;;6.43;;
54167;SDS011;68429;50.958;3.592;2023-08-31T04:33:34;18.88;;;6.03;;
54167;SDS011;68429;50.958;3.592;2023-08-31T04:36:00;20.77;;;6.45;;
54167;SDS011;68429;50.958;3.592;2023-08-31T04:38:26;18.92;;;6.45;;
54167;SDS011;68429;50.958;3.592;2023-08-31T04:40:52;15.93;;;5.78;;
54167;SDS011;68429;50.958;3.592;2023-08-31T04:43:17;22.05;;;6.65;;
54167;SDS011;68429;50.958;3.592;2023-08-31T04:45:43;17.77;;;6.05;;
54167;SDS011;68429;50.958;3.592;2023-08-31T04:48:09;15.95;;;6.00;;
54167;SDS011;68429;50.958;3.592;2023-08-31T04:50:34;17.98;;;6.10;;
54167;SDS011;68429;50.958;3.592;2023-08-31T04:53:00;20.80;;;6.22;;
54167;SDS011;68429;50.958;3.592;2023-08-31T04:55:25;13.38;;;5.88;;
54167;SDS011;68429;50.958;3.592;2023-08-31T04:57:51;23.63;;;6.45;;
54167;SDS011;68429;50.958;3.592;2023-08-31T05:00:17;24.73;;;6.45;;
54167;SDS011;68429;50.958;3.592;2023-08-31T05:02:43;14.68;;;6.20;;
54167;SDS011;68429;50.958;3.592;2023-08-31T05:05:08;25.10;;;6.20;;
54167;SDS011;68429;50.958;3.592;2023-08-31T05:07:34;24.13;;;6.10;;
54167;SDS011;68429;50.958;3.592;2023-08-31T05:10:00;21.33;;;5.25;;
54167;SDS011;68429;50.958;3.592;2023-08-31T05:12:26;13.68;;;5.90;;
54167;SDS011;68429;50.958;3.592;2023-08-31T05:14:51;12.55;;;5.05;;
54167;SDS011;68429;50.958;3.592;2023-08-31T05:17:17;20.48;;;5.63;;
54167;SDS011;68429;50.958;3.592;2023-08-31T05:19:42;22.80;;;4.95;;
54167;SDS011;68429;50.958;3.592;2023-08-31T05:22:08;15.50;;;5.28;;
54167;SDS011;68429;50.958;3.592;2023-08-31T05:24:34;17.52;;;5.20;;
54167;SDS011;68429;50.958;3.592;2023-08-31T05:27:00;15.60;;;4.93;;
54167;SDS011;68429;50.958;3.592;2023-08-31T05:29:27;16.55;;;4.90;;
54167;SDS011;68429;50.958;3.592;2023-08-31T05:31:54;23.98;;;5.60;;
54167;SDS011;68429;50.958;3.592;2023-08-31T05:34:20;13.98;;;4.93;;
54167;SDS011;68429;50.958;3.592;2023-08-31T05:36:48;14.18;;;4.65;;
54167;SDS011;68429;50.958;3.592;2023-08-31T05:39:13;14.50;;;5.20;;
54167;SDS011;68429;50.958;3.592;2023-08-31T05:41:41;14.40;;;5.30;;
54167;SDS011;68429;50.958;3.592;2023-08-31T05:44:07;17.85;;;5.28;;
54167;SDS011;68429;50.958;3.592;2023-08-31T05:46:33;12.60;;;4.25;;
54167;SDS011;68429;50.958;3.592;2023-08-31T05:48:59;23.08;;;5.75;;
54167;SDS011;68429;50.958;3.592;2023-08-31T05:51:25;16.02;;;5.00;;
54167;SDS011;68429;50.958;3.592;2023-08-31T05:53:50;19.70;;;5.35;;
54167;SDS011;68429;50.958;3.592;2023-08-31T05:56:16;13.88;;;4.88;;
54167;SDS011;68429;50.958;3.592;2023-08-31T05:58:42;12.82;;;5.03;;
54167;SDS011;68429;50.958;3.592;2023-08-31T06:01:07;12.85;;;5.47;;
54167;SDS011;68429;50.958;3.592;2023-08-31T06:03:33;15.40;;;5.30;;
54167;SDS011;68429;50.958;3.592;2023-08-31T06:05:59;19.05;;;6.43;;
54167;SDS011;68429;50.958;3.592;2023-08-31T06:08:25;16.67;;;5.75;;
54167;SDS011;68429;50.958;3.592;2023-08-31T06:10:51;15.52;;;5.85;;
54167;SDS011;68429;50.958;3.592;2023-08-31T06:13:17;14.60;;;5.70;;
54167;SDS011;68429;50.958;3.592;2023-08-31T06:15:42;15.02;;;5.65;;
54167;SDS011;68429;50.958;3.592;2023-08-31T06:18:09;15.25;;;5.07;;
54167;SDS011;68429;50.958;3.592;2023-08-31T06:20:35;15.82;;;4.72;;
54167;SDS011;68429;50.958;3.592;2023-08-31T06:23:01;15.50;;;4.55;;
54167;SDS011;68429;50.958;3.592;2023-08-31T06:25:27;16.00;;;4.65;;
54167;SDS011;68429;50.958;3.592;2023-08-31T06:27:53;14.55;;;5.07;;
54167;SDS011;68429;50.958;3.592;2023-08-31T06:30:19;14.20;;;4.32;;
54167;SDS011;68429;50.958;3.592;2023-08-31T06:32:45;14.45;;;5.13;;
54167;SDS011;68429;50.958;3.592;2023-08-31T06:35:12;11.32;;;4.50;;
54167;SDS011;68429;50.958;3.592;2023-08-31T06:37:38;14.68;;;4.60;;
54167;SDS011;68429;50.958;3.592;2023-08-31T06:40:05;9.48;;;4.28;;
54167;SDS011;68429;50.958;3.592;2023-08-31T06:42:33;8.75;;;4.13;;
54167;SDS011;68429;50.958;3.592;2023-08-31T06:45:06;11.23;;;3.83;;
54167;SDS011;68429;50.958;3.592;2023-08-31T06:47:33;10.88;;;4.03;;
54167;SDS011;68429;50.958;3.592;2023-08-31T06:49:58;12.18;;;4.75;;
54167;SDS011;68429;50.958;3.592;2023-08-31T06:52:25;12.02;;;4.03;;
54167;SDS011;68429;50.958;3.592;2023-08-31T06:54:51;15.30;;;4.20;;
54167;SDS011;68429;50.958;3.592;2023-08-31T06:57:20;13.98;;;4.43;;
54167;SDS011;68429;50.958;3.592;2023-08-31T06:59:47;12.65;;;3.72;;
54167;SDS011;68429;50.958;3.592;2023-08-31T07:02:12;11.60;;;4.28;;
54167;SDS011;68429;50.958;3.592;2023-08-31T07:04:38;13.52;;;3.90;;
54167;SDS011;68429;50.958;3.592;2023-08-31T07:07:05;10.63;;;3.75;;
54167;SDS011;68429;50.958;3.592;2023-08-31T07:09:30;13.93;;;4.55;;
54167;SDS011;68429;50.958;3.592;2023-08-31T07:11:56;14.90;;;4.53;;
54167;SDS011;68429;50.958;3.592;2023-08-31T07:14:23;10.95;;;3.80;;
54167;SDS011;68429;50.958;3.592;2023-08-31T07:16:49;14.30;;;4.38;;
54167;SDS011;68429;50.958;3.592;2023-08-31T07:19:15;11.02;;;3.75;;
54167;SDS011;68429;50.958;3.592;2023-08-31T07:21:41;13.18;;;4.47;;
54167;SDS011;68429;50.958;3.592;2023-08-31T07:24:06;12.10;;;4.63;;
54167;SDS011;68429;50.958;3.592;2023-08-31T07:26:32;12.98;;;4.32;;
54167;SDS011;68429;50.958;3.592;2023-08-31T07:28:59;8.77;;;4.03;;
54167;SDS011;68429;50.958;3.592;2023-08-31T07:31:26;12.65;;;4.68;;
54167;SDS011;68429;50.958;3.592;2023-08-31T07:33:52;15.10;;;4.10;;
54167;SDS011;68429;50.958;3.592;2023-08-31T07:36:18;14.93;;;4.82;;
54167;SDS011;68429;50.958;3.592;2023-08-31T07:38:43;7.45;;;3.63;;
54167;SDS011;68429;50.958;3.592;2023-08-31T07:41:09;10.13;;;3.88;;
54167;SDS011;68429;50.958;3.592;2023-08-31T07:43:34;10.77;;;4.55;;
54167;SDS011;68429;50.958;3.592;2023-08-31T07:46:00;13.80;;;4.82;;
54167;SDS011;68429;50.958;3.592;2023-08-31T07:48:26;13.05;;;4.00;;
54167;SDS011;68429;50.958;3.592;2023-08-31T07:50:51;18.15;;;4.90;;
54167;SDS011;68429;50.958;3.592;2023-08-31T07:53:17;10.80;;;4.38;;
54167;SDS011;68429;50.958;3.592;2023-08-31T07:55:50;12.32;;;4.32;;
54167;SDS011;68429;50.958;3.592;2023-08-31T07:58:20;11.07;;;4.18;;
54167;SDS011;68429;50.958;3.592;2023-08-31T08:00:46;10.50;;;4.20;;
54167;SDS011;68429;50.958;3.592;2023-08-31T08:03:12;11.68;;;4.20;;
54167;SDS011;68429;50.958;3.592;2023-08-31T08:05:38;11.48;;;4.38;;
54167;SDS011;68429;50.958;3.592;2023-08-31T08:08:05;9.88;;;4.00;;
54167;SDS011;68429;50.958;3.592;2023-08-31T08:10:30;12.45;;;4.47;;
54167;SDS011;68429;50.958;3.592;2023-08-31T08:12:56;8.57;;;4.03;;
54167;SDS011;68429;50.958;3.592;2023-08-31T08:15:22;8.13;;;4.35;;
54167;SDS011;68429;50.958;3.592;2023-08-31T08:17:47;12.50;;;4.53;;
54167;SDS011;68429;50.958;3.592;2023-08-31T08:20:13;10.57;;;4.47;;
54167;SDS011;68429;50.958;3.592;2023-08-31T08:22:39;9.25;;;4.05;;
54167;SDS011;68429;50.958;3.592;2023-08-31T08:25:05;14.23;;;5.18;;
54167;SDS011;68429;50.958;3.592;2023-08-31T08:27:31;15.30;;;5.32;;
54167;SDS011;68429;50.958;3.592;2023-08-31T08:29:58;11.55;;;5.13;;
54167;SDS011;68429;50.958;3.592;2023-08-31T08:32:24;10.20;;;4.55;;
54167;SDS011;68429;50.958;3.592;2023-08-31T08:34:50;16.20;;;5.32;;
54167;SDS011;68429;50.958;3.592;2023-08-31T08:37:16;11.52;;;4.68;;
54167;SDS011;68429;50.958;3.592;2023-08-31T08:39:42;13.10;;;4.35;;
54167;SDS011;68429;50.958;3.592;2023-08-31T08:42:07;12.32;;;4.82;;
54167;SDS011;68429;50.958;3.592;2023-08-31T08:44:35;14.10;;;4.60;;
54167;SDS011;68429;50.958;3.592;2023-08-31T08:47:01;12.73;;;4.30;;
54167;SDS011;68429;50.958;3.592;2023-08-31T08:49:29;18.75;;;5.20;;
54167;SDS011;68429;50.958;3.592;2023-08-31T08:51:56;13.80;;;4.85;;
54167;SDS011;68429;50.958;3.592;2023-08-31T08:54:23;13.20;;;4.50;;
54167;SDS011;68429;50.958;3.592;2023-08-31T08:56:49;11.10;;;4.97;;
54167;SDS011;68429;50.958;3.592;2023-08-31T08:59:15;15.80;;;4.05;;
54167;SDS011;68429;50.958;3.592;2023-08-31T09:01:41;14.75;;;4.63;;
54167;SDS011;68429;50.958;3.592;2023-08-31T09:04:08;14.38;;;4.78;;
54167;SDS011;68429;50.958;3.592;2023-08-31T09:06:34;10.68;;;4.30;;
54167;SDS011;68429;50.958;3.592;2023-08-31T09:09:00;10.50;;;4.03;;
54167;SDS011;68429;50.958;3.592;2023-08-31T09:11:26;12.57;;;4.30;;
54167;SDS011;68429;50.958;3.592;2023-08-31T09:13:52;9.40;;;4.57;;
54167;SDS011;68429;50.958;3.592;2023-08-31T09:16:25;11.23;;;4.15;;
54167;SDS011;68429;50.958;3.592;2023-08-31T09:18:55;12.02;;;4.88;;
54167;SDS011;68429;50.958;3.592;2023-08-31T09:21:21;12.38;;;4.18;;
54167;SDS011;68429;50.958;3.592;2023-08-31T09:23:56;13.73;;;4.72;;
54167;SDS011;68429;50.958;3.592;2023-08-31T09:26:22;12.80;;;4.90;;
54167;SDS011;68429;50.958;3.592;2023-08-31T09:28:48;13.52;;;5.25;;
54167;SDS011;68429;50.958;3.592;2023-08-31T09:31:14;10.52;;;4.45;;
54167;SDS011;68429;50.958;3.592;2023-08-31T09:33:42;10.45;;;4.53;;
54167;SDS011;68429;50.958;3.592;2023-08-31T09:36:15;10.30;;;4.45;;
54167;SDS011;68429;50.958;3.592;2023-08-31T09:38:41;12.30;;;4.80;;
54167;SDS011;68429;50.958;3.592;2023-08-31T09:41:11;10.98;;;4.28;;
54167;SDS011;68429;50.958;3.592;2023-08-31T09:43:37;9.20;;;4.35;;
54167;SDS011;68429;50.958;3.592;2023-08-31T09:46:03;12.10;;;4.50;;
54167;SDS011;68429;50.958;3.592;2023-08-31T09:48:30;12.32;;;4.35;;
54167;SDS011;68429;50.958;3.592;2023-08-31T09:50:56;11.25;;;4.10;;
54167;SDS011;68429;50.958;3.592;2023-08-31T09:53:25;10.13;;;3.92;;
54167;SDS011;68429;50.958;3.592;2023-08-31T09:55:54;12.45;;;4.72;;
54167;SDS011;68429;50.958;3.592;2023-08-31T09:58:21;10.63;;;4.57;;
54167;SDS011;68429;50.958;3.592;2023-08-31T10:00:48;12.10;;;4.05;;
54167;SDS011;68429;50.958;3.592;2023-08-31T10:03:15;13.63;;;3.42;;
54167;SDS011;68429;50.958;3.592;2023-08-31T10:05:45;9.75;;;2.83;;
54167;SDS011;68429;50.958;3.592;2023-08-31T10:08:14;6.90;;;3.00;;
54167;SDS011;68429;50.958;3.592;2023-08-31T10:10:40;7.35;;;3.00;;
54167;SDS011;68429;50.958;3.592;2023-08-31T10:13:06;7.68;;;2.72;;
54167;SDS011;68429;50.958;3.592;2023-08-31T10:15:34;7.63;;;2.63;;
54167;SDS011;68429;50.958;3.592;2023-08-31T10:18:01;10.82;;;2.92;;
54167;SDS011;68429;50.958;3.592;2023-08-31T10:20:30;6.35;;;2.50;;
54167;SDS011;68429;50.958;3.592;2023-08-31T10:22:58;7.93;;;2.65;;
54167;SDS011;68429;50.958;3.592;2023-08-31T10:25:24;5.90;;;2.75;;
54167;SDS011;68429;50.958;3.592;2023-08-31T10:27:51;6.95;;;2.80;;
54167;SDS011;68429;50.958;3.592;2023-08-31T10:35:54;7.13;;;2.45;;
54167;SDS011;68429;50.958;3.592;2023-08-31T10:38:30;7.22;;;2.40;;
54167;SDS011;68429;50.958;3.592;2023-08-31T10:46:15;3.33;;;1.67;;
54167;SDS011;68429;50.958;3.592;2023-08-31T10:51:38;6.00;;;1.70;;
54167;SDS011;68429;50.958;3.592;2023-08-31T10:59:48;5.50;;;2.00;;
54167;SDS011;68429;50.958;3.592;2023-08-31T11:05:11;4.63;;;1.95;;
54167;SDS011;68429;50.958;3.592;2023-08-31T11:07:47;3.85;;;1.42;;
54167;SDS011;68429;50.958;3.592;2023-08-31T11:10:17;6.43;;;1.80;;
54167;SDS011;68429;50.958;3.592;2023-08-31T11:12:49;9.02;;;2.13;;
54167;SDS011;68429;50.958;3.592;2023-08-31T11:15:19;6.05;;;2.17;;
54167;SDS011;68429;50.958;3.592;2023-08-31T11:17:46;8.35;;;2.60;;
54167;SDS011;68429;50.958;3.592;2023-08-31T11:20:16;6.50;;;1.88;;
54167;SDS011;68429;50.958;3.592;2023-08-31T11:22:44;4.22;;;1.67;;
54167;SDS011;68429;50.958;3.592;2023-08-31T11:25:11;6.45;;;1.92;;
54167;SDS011;68429;50.958;3.592;2023-08-31T11:27:38;8.20;;;2.60;;
54167;SDS011;68429;50.958;3.592;2023-08-31T11:30:26;11.25;;;2.40;;
54167;SDS011;68429;50.958;3.592;2023-08-31T11:32:56;7.93;;;2.17;;
54167;SDS011;68429;50.958;3.592;2023-08-31T11:35:30;5.53;;;2.28;;
54167;SDS011;68429;50.958;3.592;2023-08-31T11:38:01;6.60;;;2.00;;
54167;SDS011;68429;50.958;3.592;2023-08-31T11:40:28;7.75;;;2.15;;
54167;SDS011;68429;50.958;3.592;2023-08-31T11:42:54;8.18;;;2.20;;
54167;SDS011;68429;50.958;3.592;2023-08-31T11:45:19;6.78;;;2.17;;
54167;SDS011;68429;50.958;3.592;2023-08-31T11:47:47;5.85;;;2.00;;
54167;SDS011;68429;50.958;3.592;2023-08-31T11:50:13;4.95;;;2.00;;
54167;SDS011;68429;50.958;3.592;2023-08-31T11:52:40;5.65;;;1.75;;
54167;SDS011;68429;50.958;3.592;2023-08-31T11:55:11;12.48;;;2.33;;
54167;SDS011;68429;50.958;3.592;2023-08-31T11:57:37;4.68;;;2.08;;
54167;SDS011;68429;50.958;3.592;2023-08-31T12:00:03;9.23;;;2.85;;
54167;SDS011;68429;50.958;3.592;2023-08-31T12:02:39;6.95;;;2.35;;
54167;SDS011;68429;50.958;3.592;2023-08-31T12:05:05;8.10;;;2.00;;
54167;SDS011;68429;50.958;3.592;2023-08-31T12:07:31;6.07;;;2.05;;
54167;SDS011;68429;50.958;3.592;2023-08-31T12:10:03;7.95;;;2.30;;
54167;SDS011;68429;50.958;3.592;2023-08-31T12:12:29;6.85;;;2.30;;
54167;SDS011;68429;50.958;3.592;2023-08-31T12:14:57;5.55;;;1.83;;
54167;SDS011;68429;50.958;3.592;2023-08-31T12:17:28;5.72;;;1.98;;
54167;SDS011;68429;50.958;3.592;2023-08-31T12:20:01;7.95;;;2.60;;
54167;SDS011;68429;50.958;3.592;2023-08-31T12:22:31;11.00;;;2.33;;
54167;SDS011;68429;50.958;3.592;2023-08-31T12:24:57;5.00;;;1.65;;
54167;SDS011;68429;50.958;3.592;2023-08-31T12:27:22;7.63;;;2.25;;
54167;SDS011;68429;50.958;3.592;2023-08-31T12:29:48;6.25;;;1.92;;
54167;SDS011;68429;50.958;3.592;2023-08-31T12:32:15;5.72;;;1.92;;
54167;SDS011;68429;50.958;3.592;2023-08-31T12:34:42;8.25;;;2.22;;
54167;SDS011;68429;50.958;3.592;2023-08-31T12:37:07;3.58;;;1.60;;
54167;SDS011;68429;50.958;3.592;2023-08-31T12:39:33;7.43;;;2.13;;
54167;SDS011;68429;50.958;3.592;2023-08-31T12:41:59;6.38;;;1.77;;
54167;SDS011;68429;50.958;3.592;2023-08-31T12:44:24;6.50;;;2.05;;
54167;SDS011;68429;50.958;3.592;2023-08-31T12:46:50;8.10;;;2.42;;
54167;SDS011;68429;50.958;3.592;2023-08-31T12:49:17;4.20;;;1.83;;
54167;SDS011;68429;50.958;3.592;2023-08-31T12:51:45;8.82;;;2.47;;
54167;SDS011;68429;50.958;3.592;2023-08-31T12:54:11;4.20;;;1.85;;
54167;SDS011;68429;50.958;3.592;2023-08-31T12:56:37;8.68;;;2.15;;
54167;SDS011;68429;50.958;3.592;2023-08-31T12:59:03;5.35;;;1.73;;
54167;SDS011;68429;50.958;3.592;2023-08-31T13:01:30;9.00;;;2.53;;
54167;SDS011;68429;50.958;3.592;2023-08-31T13:03:58;6.70;;;2.00;;
54167;SDS011;68429;50.958;3.592;2023-08-31T13:06:24;6.22;;;1.90;;
54167;SDS011;68429;50.958;3.592;2023-08-31T13:08:50;5.65;;;2.05;;
54167;SDS011;68429;50.958;3.592;2023-08-31T13:11:16;4.93;;;2.03;;
54167;SDS011;68429;50.958;3.592;2023-08-31T13:13:44;12.45;;;2.92;;
54167;SDS011;68429;50.958;3.592;2023-08-31T13:16:09;6.60;;;2.40;;
54167;SDS011;68429;50.958;3.592;2023-08-31T13:18:35;7.70;;;2.40;;
54167;SDS011;68429;50.958;3.592;2023-08-31T13:21:01;9.77;;;2.67;;
54167;SDS011;68429;50.958;3.592;2023-08-31T13:23:28;13.93;;;3.08;;
54167;SDS011;68429;50.958;3.592;2023-08-31T13:25:53;8.85;;;2.28;;
54167;SDS011;68429;50.958;3.592;2023-08-31T13:28:21;9.88;;;2.40;;
54167;SDS011;68429;50.958;3.592;2023-08-31T13:30:46;10.50;;;2.97;;
54167;SDS011;68429;50.958;3.592;2023-08-31T13:33:12;12.63;;;2.53;;
54167;SDS011;68429;50.958;3.592;2023-08-31T13:35:38;12.20;;;3.03;;
54167;SDS011;68429;50.958;3.592;2023-08-31T13:38:04;12.07;;;3.20;;
54167;SDS011;68429;50.958;3.592;2023-08-31T13:40:29;5.63;;;2.38;;
54167;SDS011;68429;50.958;3.592;2023-08-31T13:42:58;8.50;;;2.88;;
54167;SDS011;68429;50.958;3.592;2023-08-31T13:45:30;8.85;;;2.95;;
54167;SDS011;68429;50.958;3.592;2023-08-31T13:48:00;10.40;;;2.63;;
54167;SDS011;68429;50.958;3.592;2023-08-31T13:50:26;11.27;;;3.03;;
54167;SDS011;68429;50.958;3.592;2023-08-31T13:52:53;15.80;;;3.60;;
54167;SDS011;68429;50.958;3.592;2023-08-31T13:55:18;8.85;;;3.08;;
54167;SDS011;68429;50.958;3.592;2023-08-31T13:57:44;12.35;;;3.20;;
54167;SDS011;68429;50.958;3.592;2023-08-31T14:00:10;11.07;;;2.47;;
54167;SDS011;68429;50.958;3.592;2023-08-31T14:02:37;9.57;;;3.00;;
54167;SDS011;68429;50.958;3.592;2023-08-31T14:05:03;10.88;;;3.30;;
54167;SDS011;68429;50.958;3.592;2023-08-31T14:07:33;8.40;;;2.90;;
54167;SDS011;68429;50.958;3.592;2023-08-31T14:09:59;12.25;;;2.97;;
54167;SDS011;68429;50.958;3.592;2023-08-31T14:12:25;11.40;;;3.08;;
54167;SDS011;68429;50.958;3.592;2023-08-31T14:14:51;12.05;;;3.50;;
54167;SDS011;68429;50.958;3.592;2023-08-31T14:17:17;9.93;;;3.33;;
54167;SDS011;68429;50.958;3.592;2023-08-31T14:19:43;12.98;;;3.83;;
54167;SDS011;68429;50.958;3.592;2023-08-31T14:22:09;11.15;;;3.25;;
54167;SDS011;68429;50.958;3.592;2023-08-31T14:24:35;8.02;;;2.50;;
54167;SDS011;68429;50.958;3.592;2023-08-31T14:27:02;11.13;;;3.53;;
54167;SDS011;68429;50.958;3.592;2023-08-31T14:29:28;12.75;;;3.58;;
54167;SDS011;68429;50.958;3.592;2023-08-31T14:31:54;12.75;;;3.70;;
54167;SDS011;68429;50.958;3.592;2023-08-31T14:34:20;13.93;;;3.70;;
54167;SDS011;68429;50.958;3.592;2023-08-31T14:36:46;13.05;;;3.80;;
54167;SDS011;68429;50.958;3.592;2023-08-31T14:39:12;11.90;;;3.67;;
54167;SDS011;68429;50.958;3.592;2023-08-31T14:41:37;8.45;;;3.30;;
54167;SDS011;68429;50.958;3.592;2023-08-31T14:44:03;9.43;;;3.05;;
54167;SDS011;68429;50.958;3.592;2023-08-31T14:46:29;8.52;;;3.22;;
54167;SDS011;68429;50.958;3.592;2023-08-31T14:48:55;13.13;;;3.35;;
54167;SDS011;68429;50.958;3.592;2023-08-31T14:51:20;8.98;;;3.20;;
54167;SDS011;68429;50.958;3.592;2023-08-31T14:53:46;13.50;;;3.53;;
54167;SDS011;68429;50.958;3.592;2023-08-31T14:56:11;15.25;;;4.28;;
54167;SDS011;68429;50.958;3.592;2023-08-31T14:58:37;9.40;;;3.50;;
54167;SDS011;68429;50.958;3.592;2023-08-31T15:01:03;11.90;;;3.70;;
54167;SDS011;68429;50.958;3.592;2023-08-31T15:03:28;14.45;;;3.85;;
54167;SDS011;68429;50.958;3.592;2023-08-31T15:05:54;14.15;;;3.38;;
54167;SDS011;68429;50.958;3.592;2023-08-31T15:08:21;13.13;;;3.38;;
54167;SDS011;68429;50.958;3.592;2023-08-31T15:11:00;18.10;;;3.78;;